sensor_id;sensor_type;location;lat;lon;timestamp;temperature;humidity
38938;DHT22;24727;51.974;20.868;2022-10-26T00:02:37;12.20;99.30
38938;DHT22;24727;51.974;20.868;2022-10-26T00:05:36;12.20;98.80
38938;DHT22;24727;51.974;20.868;2022-10-26T00:08:23;12.20;99.30
38938;DHT22;24727;51.974;20.868;2022-10-26T00:14:33;12.20;98.80
38938;DHT22;24727;51.974;20.868;2022-10-26T00:16:59;12.20;98.80
38938;DHT22;24727;51.974;20.868;2022-10-26T00:19:27;12.20;98.90
38938;DHT22;24727;51.974;20.868;2022-10-26T00:21:55;12.10;99.10
38938;DHT22;24727;51.974;20.868;2022-10-26T00:24:36;12.10;98.80
38938;DHT22;24727;51.974;20.868;2022-10-26T00:27:02;12.00;98.50
38938;DHT22;24727;51.974;20.868;2022-10-26T00:29:35;12.00;99.00
38938;DHT22;24727;51.974;20.868;2022-10-26T00:32:14;12.00;98.70
38938;DHT22;24727;51.974;20.868;2022-10-26T00:35:08;12.00;99.90
38938;DHT22;24727;51.974;20.868;2022-10-26T00:37:33;11.90;99.90
38938;DHT22;24727;51.974;20.868;2022-10-26T00:40:16;11.90;99.70
38938;DHT22;24727;51.974;20.868;2022-10-26T00:42:44;11.90;99.90
38938;DHT22;24727;51.974;20.868;2022-10-26T00:45:33;11.90;99.90
38938;DHT22;24727;51.974;20.868;2022-10-26T00:48:09;11.90;99.90
38938;DHT22;24727;51.974;20.868;2022-10-26T00:50:40;11.90;99.90
38938;DHT22;24727;51.974;20.868;2022-10-26T00:53:12;11.90;99.80
38938;DHT22;24727;51.974;20.868;2022-10-26T00:55:47;11.90;99.90
38938;DHT22;24727;51.974;20.868;2022-10-26T00:58:31;11.90;99.90
38938;DHT22;24727;51.974;20.868;2022-10-26T01:01:06;11.90;99.90
38938;DHT22;24727;51.974;20.868;2022-10-26T01:03:38;11.90;99.90
38938;DHT22;24727;51.974;20.868;2022-10-26T01:06:05;12.00;99.90
38938;DHT22;24727;51.974;20.868;2022-10-26T01:08:40;11.90;99.90
38938;DHT22;24727;51.974;20.868;2022-10-26T01:11:10;12.00;99.90
38938;DHT22;24727;51.974;20.868;2022-10-26T01:13:44;12.00;99.80
38938;DHT22;24727;51.974;20.868;2022-10-26T01:16:40;12.00;98.70
38938;DHT22;24727;51.974;20.868;2022-10-26T01:27:38;12.00;99.40
38938;DHT22;24727;51.974;20.868;2022-10-26T01:36:11;11.90;99.60
38938;DHT22;24727;51.974;20.868;2022-10-26T01:39:20;11.90;99.70
38938;DHT22;24727;51.974;20.868;2022-10-26T01:41:54;11.90;99.60
38938;DHT22;24727;51.974;20.868;2022-10-26T01:44:35;11.90;99.70
38938;DHT22;24727;51.974;20.868;2022-10-26T01:47:13;11.90;99.80
38938;DHT22;24727;51.974;20.868;2022-10-26T01:49:48;11.80;99.10
38938;DHT22;24727;51.974;20.868;2022-10-26T01:52:17;11.80;99.90
38938;DHT22;24727;51.974;20.868;2022-10-26T01:54:43;11.90;99.40
38938;DHT22;24727;51.974;20.868;2022-10-26T01:57:18;11.90;99.60
38938;DHT22;24727;51.974;20.868;2022-10-26T02:00:09;11.80;99.90
38938;DHT22;24727;51.974;20.868;2022-10-26T02:03:04;11.80;99.90
38938;DHT22;24727;51.974;20.868;2022-10-26T02:05:55;11.80;99.90
38938;DHT22;24727;51.974;20.868;2022-10-26T02:13:54;11.70;99.90
38938;DHT22;24727;51.974;20.868;2022-10-26T02:16:54;11.70;99.90
38938;DHT22;24727;51.974;20.868;2022-10-26T02:22:31;11.60;99.90
38938;DHT22;24727;51.974;20.868;2022-10-26T02:28:21;11.60;99.90
38938;DHT22;24727;51.974;20.868;2022-10-26T02:31:06;11.60;99.90
38938;DHT22;24727;51.974;20.868;2022-10-26T02:33:37;11.60;99.90
38938;DHT22;24727;51.974;20.868;2022-10-26T02:36:09;11.60;99.90
38938;DHT22;24727;51.974;20.868;2022-10-26T02:38:46;11.60;99.90
38938;DHT22;24727;51.974;20.868;2022-10-26T03:02:56;11.40;99.90
38938;DHT22;24727;51.974;20.868;2022-10-26T03:05:41;11.50;99.90
38938;DHT22;24727;51.974;20.868;2022-10-26T03:09:12;11.50;99.90
38938;DHT22;24727;51.974;20.868;2022-10-26T03:14:36;11.40;99.90
38938;DHT22;24727;51.974;20.868;2022-10-26T03:17:47;11.40;99.90
38938;DHT22;24727;51.974;20.868;2022-10-26T03:20:42;11.30;99.90
38938;DHT22;24727;51.974;20.868;2022-10-26T03:23:40;11.40;99.90
38938;DHT22;24727;51.974;20.868;2022-10-26T03:26:13;11.40;99.90
38938;DHT22;24727;51.974;20.868;2022-10-26T03:29:06;11.40;99.90
38938;DHT22;24727;51.974;20.868;2022-10-26T03:31:52;11.40;99.90
38938;DHT22;24727;51.974;20.868;2022-10-26T03:34:21;11.30;99.90
38938;DHT22;24727;51.974;20.868;2022-10-26T03:36:56;11.30;99.90
38938;DHT22;24727;51.974;20.868;2022-10-26T03:39:52;11.40;99.90
38938;DHT22;24727;51.974;20.868;2022-10-26T03:42:54;11.50;99.90
38938;DHT22;24727;51.974;20.868;2022-10-26T03:45:30;11.50;99.90
38938;DHT22;24727;51.974;20.868;2022-10-26T03:48:18;11.50;99.90
38938;DHT22;24727;51.974;20.868;2022-10-26T06:03:28;11.00;99.90
38938;DHT22;24727;51.974;20.868;2022-10-26T06:05:58;11.00;99.90
38938;DHT22;24727;51.974;20.868;2022-10-26T06:08:26;11.00;99.90
38938;DHT22;24727;51.974;20.868;2022-10-26T06:10:59;11.00;99.90
38938;DHT22;24727;51.974;20.868;2022-10-26T06:13:30;11.00;99.90
38938;DHT22;24727;51.974;20.868;2022-10-26T06:16:28;11.00;99.90
38938;DHT22;24727;51.974;20.868;2022-10-26T06:30:33;11.00;97.70
38938;DHT22;24727;51.974;20.868;2022-10-26T06:33:15;11.00;97.00
38938;DHT22;24727;51.974;20.868;2022-10-26T06:36:25;11.00;97.00
38938;DHT22;24727;51.974;20.868;2022-10-26T06:39:00;11.00;97.60
38938;DHT22;24727;51.974;20.868;2022-10-26T06:41:31;10.90;97.10
38938;DHT22;24727;51.974;20.868;2022-10-26T06:43:58;11.00;97.30
38938;DHT22;24727;51.974;20.868;2022-10-26T07:15:46;11.20;97.00
38938;DHT22;24727;51.974;20.868;2022-10-26T07:28:41;11.40;96.80
38938;DHT22;24727;51.974;20.868;2022-10-26T07:55:53;11.10;94.70
38938;DHT22;24727;51.974;20.868;2022-10-26T07:58:22;11.10;95.60
38938;DHT22;24727;51.974;20.868;2022-10-26T08:01:03;11.20;96.10
38938;DHT22;24727;51.974;20.868;2022-10-26T08:46:03;11.00;95.60
38938;DHT22;24727;51.974;20.868;2022-10-26T08:52:02;11.10;94.80
38938;DHT22;24727;51.974;20.868;2022-10-26T08:54:53;11.10;94.40
38938;DHT22;24727;51.974;20.868;2022-10-26T08:57:39;11.20;94.10
38938;DHT22;24727;51.974;20.868;2022-10-26T09:00:19;11.30;93.40
38938;DHT22;24727;51.974;20.868;2022-10-26T09:02:50;11.30;94.10
38938;DHT22;24727;51.974;20.868;2022-10-26T09:05:19;11.40;93.80
38938;DHT22;24727;51.974;20.868;2022-10-26T09:09:01;11.40;92.60
38938;DHT22;24727;51.974;20.868;2022-10-26T09:11:11;11.50;92.40
38938;DHT22;24727;51.974;20.868;2022-10-26T09:22:06;11.70;91.20
38938;DHT22;24727;51.974;20.868;2022-10-26T09:25:07;11.90;91.30
38938;DHT22;24727;51.974;20.868;2022-10-26T09:27:40;11.90;89.80
38938;DHT22;24727;51.974;20.868;2022-10-26T09:30:16;11.90;89.80
38938;DHT22;24727;51.974;20.868;2022-10-26T09:32:47;11.90;89.10
38938;DHT22;24727;51.974;20.868;2022-10-26T09:35:23;11.90;87.90
38938;DHT22;24727;51.974;20.868;2022-10-26T09:38:03;12.00;89.00
38938;DHT22;24727;51.974;20.868;2022-10-26T09:40:47;12.10;89.40
38938;DHT22;24727;51.974;20.868;2022-10-26T09:43:27;12.10;86.00
38938;DHT22;24727;51.974;20.868;2022-10-26T09:45:54;12.10;86.20
38938;DHT22;24727;51.974;20.868;2022-10-26T09:49:03;12.20;87.00
38938;DHT22;24727;51.974;20.868;2022-10-26T09:51:39;12.20;85.90
38938;DHT22;24727;51.974;20.868;2022-10-26T09:54:17;12.30;84.80
38938;DHT22;24727;51.974;20.868;2022-10-26T09:56:46;12.40;85.40
38938;DHT22;24727;51.974;20.868;2022-10-26T09:59:17;12.50;86.00
38938;DHT22;24727;51.974;20.868;2022-10-26T10:01:44;12.60;83.40
38938;DHT22;24727;51.974;20.868;2022-10-26T10:06:43;12.60;84.20
38938;DHT22;24727;51.974;20.868;2022-10-26T10:09:17;12.60;82.70
38938;DHT22;24727;51.974;20.868;2022-10-26T10:12:02;12.70;81.70
38938;DHT22;24727;51.974;20.868;2022-10-26T10:14:39;12.80;82.40
38938;DHT22;24727;51.974;20.868;2022-10-26T10:17:08;12.80;80.50
38938;DHT22;24727;51.974;20.868;2022-10-26T10:19:41;12.80;79.70
38938;DHT22;24727;51.974;20.868;2022-10-26T10:22:11;12.90;80.20
38938;DHT22;24727;51.974;20.868;2022-10-26T10:24:40;12.90;80.50
38938;DHT22;24727;51.974;20.868;2022-10-26T10:29:51;13.00;79.70
38938;DHT22;24727;51.974;20.868;2022-10-26T10:32:28;13.10;79.30
38938;DHT22;24727;51.974;20.868;2022-10-26T10:34:59;13.10;78.60
38938;DHT22;24727;51.974;20.868;2022-10-26T10:37:39;13.20;78.90
38938;DHT22;24727;51.974;20.868;2022-10-26T10:40:18;13.20;77.90
38938;DHT22;24727;51.974;20.868;2022-10-26T10:42:46;13.30;78.60
38938;DHT22;24727;51.974;20.868;2022-10-26T10:45:25;13.30;74.10
38938;DHT22;24727;51.974;20.868;2022-10-26T10:48:04;13.30;75.00
38938;DHT22;24727;51.974;20.868;2022-10-26T10:50:56;13.50;76.00
38938;DHT22;24727;51.974;20.868;2022-10-26T10:53:34;13.50;78.50
38938;DHT22;24727;51.974;20.868;2022-10-26T11:01:03;13.50;74.10
38938;DHT22;24727;51.974;20.868;2022-10-26T11:06:27;13.50;70.90
38938;DHT22;24727;51.974;20.868;2022-10-26T11:08:59;13.40;69.10
38938;DHT22;24727;51.974;20.868;2022-10-26T11:14:17;13.50;68.70
38938;DHT22;24727;51.974;20.868;2022-10-26T11:16:49;13.80;65.80
38938;DHT22;24727;51.974;20.868;2022-10-26T11:19:29;13.70;64.00
38938;DHT22;24727;51.974;20.868;2022-10-26T11:21:58;13.50;68.70
38938;DHT22;24727;51.974;20.868;2022-10-26T11:24:28;13.50;66.80
38938;DHT22;24727;51.974;20.868;2022-10-26T11:27:03;13.50;69.20
38938;DHT22;24727;51.974;20.868;2022-10-26T11:29:37;13.60;63.30
38938;DHT22;24727;51.974;20.868;2022-10-26T11:32:27;13.60;63.20
38938;DHT22;24727;51.974;20.868;2022-10-26T11:35:10;13.80;65.30
38938;DHT22;24727;51.974;20.868;2022-10-26T11:40:37;13.80;57.00
38938;DHT22;24727;51.974;20.868;2022-10-26T11:48:53;13.70;64.40
38938;DHT22;24727;51.974;20.868;2022-10-26T11:51:40;13.60;63.70
38938;DHT22;24727;51.974;20.868;2022-10-26T11:54:15;13.60;49.70
38938;DHT22;24727;51.974;20.868;2022-10-26T11:56:49;13.50;1.00
38938;DHT22;24727;51.974;20.868;2022-10-26T11:59:23;13.50;1.00
38938;DHT22;24727;51.974;20.868;2022-10-26T12:02:14;13.50;1.00
38938;DHT22;24727;51.974;20.868;2022-10-26T12:04:46;13.70;1.00
38938;DHT22;24727;51.974;20.868;2022-10-26T12:10:27;13.90;1.00
38938;DHT22;24727;51.974;20.868;2022-10-26T12:18:52;13.90;1.00
38938;DHT22;24727;51.974;20.868;2022-10-26T12:21:27;13.90;1.00
38938;DHT22;24727;51.974;20.868;2022-10-26T12:27:04;13.80;1.00
38938;DHT22;24727;51.974;20.868;2022-10-26T12:29:32;13.90;1.00
38938;DHT22;24727;51.974;20.868;2022-10-26T12:37:42;14.00;1.00
38938;DHT22;24727;51.974;20.868;2022-10-26T12:42:53;13.90;1.00
38938;DHT22;24727;51.974;20.868;2022-10-26T12:45:21;13.80;1.00
38938;DHT22;24727;51.974;20.868;2022-10-26T12:50:22;13.70;1.00
38938;DHT22;24727;51.974;20.868;2022-10-26T12:53:05;13.70;1.00
38938;DHT22;24727;51.974;20.868;2022-10-26T13:04:06;13.80;1.00
38938;DHT22;24727;51.974;20.868;2022-10-26T13:09:26;14.10;1.00
38938;DHT22;24727;51.974;20.868;2022-10-26T13:11:57;14.20;1.00
38938;DHT22;24727;51.974;20.868;2022-10-26T13:14:33;14.20;1.00
38938;DHT22;24727;51.974;20.868;2022-10-26T13:17:06;14.00;1.00
38938;DHT22;24727;51.974;20.868;2022-10-26T13:19:47;14.00;1.00
38938;DHT22;24727;51.974;20.868;2022-10-26T13:22:18;14.00;1.00
38938;DHT22;24727;51.974;20.868;2022-10-26T13:24:54;14.00;1.00
38938;DHT22;24727;51.974;20.868;2022-10-26T13:27:39;14.00;1.00
38938;DHT22;24727;51.974;20.868;2022-10-26T13:30:41;14.00;1.00
38938;DHT22;24727;51.974;20.868;2022-10-26T13:33:23;14.00;1.00
38938;DHT22;24727;51.974;20.868;2022-10-26T13:35:54;13.90;1.00
38938;DHT22;24727;51.974;20.868;2022-10-26T13:38:24;13.90;1.00
38938;DHT22;24727;51.974;20.868;2022-10-26T13:41:01;13.90;1.00
38938;DHT22;24727;51.974;20.868;2022-10-26T13:43:29;13.90;1.00
38938;DHT22;24727;51.974;20.868;2022-10-26T13:45:59;13.90;1.00
38938;DHT22;24727;51.974;20.868;2022-10-26T13:48:39;13.90;1.00
38938;DHT22;24727;51.974;20.868;2022-10-26T13:51:22;14.00;1.00
38938;DHT22;24727;51.974;20.868;2022-10-26T13:54:03;14.00;1.00
38938;DHT22;24727;51.974;20.868;2022-10-26T13:56:36;14.00;1.00
38938;DHT22;24727;51.974;20.868;2022-10-26T13:59:08;14.00;1.00
38938;DHT22;24727;51.974;20.868;2022-10-26T14:01:35;14.00;1.00
38938;DHT22;24727;51.974;20.868;2022-10-26T14:04:25;13.90;1.00
38938;DHT22;24727;51.974;20.868;2022-10-26T14:06:52;14.00;1.00
38938;DHT22;24727;51.974;20.868;2022-10-26T14:09:19;14.10;1.00
38938;DHT22;24727;51.974;20.868;2022-10-26T14:11:53;14.10;1.00
38938;DHT22;24727;51.974;20.868;2022-10-26T14:14:32;14.30;1.00
38938;DHT22;24727;51.974;20.868;2022-10-26T14:16:59;14.30;1.00
38938;DHT22;24727;51.974;20.868;2022-10-26T14:19:36;14.40;1.00
38938;DHT22;24727;51.974;20.868;2022-10-26T14:22:19;14.40;1.00
38938;DHT22;24727;51.974;20.868;2022-10-26T14:24:52;14.40;1.00
38938;DHT22;24727;51.974;20.868;2022-10-26T14:27:21;14.40;1.00
38938;DHT22;24727;51.974;20.868;2022-10-26T14:29:47;14.40;1.00
38938;DHT22;24727;51.974;20.868;2022-10-26T14:34:53;14.10;1.00
38938;DHT22;24727;51.974;20.868;2022-10-26T14:37:43;14.10;1.00
38938;DHT22;24727;51.974;20.868;2022-10-26T14:40:33;14.10;1.00
38938;DHT22;24727;51.974;20.868;2022-10-26T14:43:03;14.20;1.00
38938;DHT22;24727;51.974;20.868;2022-10-26T14:45:38;14.20;1.00
38938;DHT22;24727;51.974;20.868;2022-10-26T14:48:13;14.10;1.00
38938;DHT22;24727;51.974;20.868;2022-10-26T14:51:16;13.90;1.00
38938;DHT22;24727;51.974;20.868;2022-10-26T14:53:50;13.80;1.00
38938;DHT22;24727;51.974;20.868;2022-10-26T15:01:53;13.90;1.00
38938;DHT22;24727;51.974;20.868;2022-10-26T15:04:41;13.90;1.00
38938;DHT22;24727;51.974;20.868;2022-10-26T15:07:21;13.80;1.00
38938;DHT22;24727;51.974;20.868;2022-10-26T15:09:49;13.80;1.00
38938;DHT22;24727;51.974;20.868;2022-10-26T15:12:35;13.70;1.00
38938;DHT22;24727;51.974;20.868;2022-10-26T15:17:41;13.50;1.00
38938;DHT22;24727;51.974;20.868;2022-10-26T15:20:25;13.40;1.00
38938;DHT22;24727;51.974;20.868;2022-10-26T15:22:54;13.30;1.00
38938;DHT22;24727;51.974;20.868;2022-10-26T15:25:23;13.10;1.00
38938;DHT22;24727;51.974;20.868;2022-10-26T15:27:51;13.00;1.00
38938;DHT22;24727;51.974;20.868;2022-10-26T15:30:24;13.00;1.00
38938;DHT22;24727;51.974;20.868;2022-10-26T15:32:54;12.90;1.00
38938;DHT22;24727;51.974;20.868;2022-10-26T15:35:30;12.90;1.00
38938;DHT22;24727;51.974;20.868;2022-10-26T15:37:57;12.80;1.00
38938;DHT22;24727;51.974;20.868;2022-10-26T15:40:26;12.80;1.00
38938;DHT22;24727;51.974;20.868;2022-10-26T15:42:54;12.80;1.00
38938;DHT22;24727;51.974;20.868;2022-10-26T15:45:29;12.70;1.00
38938;DHT22;24727;51.974;20.868;2022-10-26T15:47:58;12.70;1.00
38938;DHT22;24727;51.974;20.868;2022-10-26T15:50:27;12.60;1.00
38938;DHT22;24727;51.974;20.868;2022-10-26T15:53:01;12.60;1.00
38938;DHT22;24727;51.974;20.868;2022-10-26T15:55:32;12.50;1.00
38938;DHT22;24727;51.974;20.868;2022-10-26T15:57:59;12.40;1.00
38938;DHT22;24727;51.974;20.868;2022-10-26T16:00:25;12.40;1.00
38938;DHT22;24727;51.974;20.868;2022-10-26T16:02:52;12.30;1.00
38938;DHT22;24727;51.974;20.868;2022-10-26T16:05:18;12.10;1.00
38938;DHT22;24727;51.974;20.868;2022-10-26T16:07:50;11.90;1.00
38938;DHT22;24727;51.974;20.868;2022-10-26T16:10:24;11.90;1.00
38938;DHT22;24727;51.974;20.868;2022-10-26T16:12:54;11.90;1.00
38938;DHT22;24727;51.974;20.868;2022-10-26T16:15:23;11.80;1.00
38938;DHT22;24727;51.974;20.868;2022-10-26T16:17:50;11.80;1.00
38938;DHT22;24727;51.974;20.868;2022-10-26T16:20:20;11.70;1.00
38938;DHT22;24727;51.974;20.868;2022-10-26T16:22:50;11.70;1.00
38938;DHT22;24727;51.974;20.868;2022-10-26T16:25:18;11.70;1.00
38938;DHT22;24727;51.974;20.868;2022-10-26T16:27:46;11.70;1.00
38938;DHT22;24727;51.974;20.868;2022-10-26T16:30:21;11.60;1.00
38938;DHT22;24727;51.974;20.868;2022-10-26T16:32:47;11.60;1.00
38938;DHT22;24727;51.974;20.868;2022-10-26T16:35:13;11.40;1.00
38938;DHT22;24727;51.974;20.868;2022-10-26T16:37:39;11.40;1.00
38938;DHT22;24727;51.974;20.868;2022-10-26T16:40:07;11.30;1.00
38938;DHT22;24727;51.974;20.868;2022-10-26T16:42:33;11.20;1.00
38938;DHT22;24727;51.974;20.868;2022-10-26T16:55:39;10.90;16.00
38938;DHT22;24727;51.974;20.868;2022-10-26T16:58:06;10.80;15.50
38938;DHT22;24727;51.974;20.868;2022-10-26T17:00:39;10.70;18.60
38938;DHT22;24727;51.974;20.868;2022-10-26T17:03:22;10.70;24.70
38938;DHT22;24727;51.974;20.868;2022-10-26T17:09:01;10.60;48.20
38938;DHT22;24727;51.974;20.868;2022-10-26T17:11:39;10.50;43.30
38938;DHT22;24727;51.974;20.868;2022-10-26T17:14:35;10.40;50.50
38938;DHT22;24727;51.974;20.868;2022-10-26T17:17:08;10.40;61.90
38938;DHT22;24727;51.974;20.868;2022-10-26T17:19:34;10.30;60.80
38938;DHT22;24727;51.974;20.868;2022-10-26T17:24:40;10.10;57.90
38938;DHT22;24727;51.974;20.868;2022-10-26T17:27:12;10.00;64.50
38938;DHT22;24727;51.974;20.868;2022-10-26T17:38:51;9.80;84.90
38938;DHT22;24727;51.974;20.868;2022-10-26T17:41:24;9.80;88.70
38938;DHT22;24727;51.974;20.868;2022-10-26T17:43:50;9.80;90.00
38938;DHT22;24727;51.974;20.868;2022-10-26T17:46:21;9.70;89.50
38938;DHT22;24727;51.974;20.868;2022-10-26T17:48:58;9.60;91.30
38938;DHT22;24727;51.974;20.868;2022-10-26T17:51:27;9.60;92.30
38938;DHT22;24727;51.974;20.868;2022-10-26T17:53:55;9.40;90.80
38938;DHT22;24727;51.974;20.868;2022-10-26T17:56:50;9.60;93.30
38938;DHT22;24727;51.974;20.868;2022-10-26T17:59:17;9.50;92.40
38938;DHT22;24727;51.974;20.868;2022-10-26T18:01:53;9.50;92.80
38938;DHT22;24727;51.974;20.868;2022-10-26T18:04:26;9.20;89.00
38938;DHT22;24727;51.974;20.868;2022-10-26T18:06:53;9.10;88.70
38938;DHT22;24727;51.974;20.868;2022-10-26T18:09:21;9.10;91.10
38938;DHT22;24727;51.974;20.868;2022-10-26T18:11:48;9.20;92.00
38938;DHT22;24727;51.974;20.868;2022-10-26T18:14:14;9.10;88.70
38938;DHT22;24727;51.974;20.868;2022-10-26T18:16:51;9.10;91.50
38938;DHT22;24727;51.974;20.868;2022-10-26T18:22:30;9.00;91.00
38938;DHT22;24727;51.974;20.868;2022-10-26T18:25:22;9.10;92.20
38938;DHT22;24727;51.974;20.868;2022-10-26T18:30:41;9.10;88.90
38938;DHT22;24727;51.974;20.868;2022-10-26T18:35:17;9.10;90.50
38938;DHT22;24727;51.974;20.868;2022-10-26T18:38:26;9.10;91.30
38938;DHT22;24727;51.974;20.868;2022-10-26T18:55:39;8.70;95.00
38938;DHT22;24727;51.974;20.868;2022-10-26T18:58:47;8.70;95.30
38938;DHT22;24727;51.974;20.868;2022-10-26T19:01:27;8.60;95.60
38938;DHT22;24727;51.974;20.868;2022-10-26T19:03:57;8.60;96.30
38938;DHT22;24727;51.974;20.868;2022-10-26T19:06:25;8.50;95.50
38938;DHT22;24727;51.974;20.868;2022-10-26T19:09:11;8.40;95.70
38938;DHT22;24727;51.974;20.868;2022-10-26T19:12:05;8.40;96.60
38938;DHT22;24727;51.974;20.868;2022-10-26T19:14:38;8.30;96.80
38938;DHT22;24727;51.974;20.868;2022-10-26T19:17:16;8.40;97.70
38938;DHT22;24727;51.974;20.868;2022-10-26T19:22:37;8.30;97.70
38938;DHT22;24727;51.974;20.868;2022-10-26T20:38:41;7.60;94.50
38938;DHT22;24727;51.974;20.868;2022-10-26T20:46:26;7.20;94.30
38938;DHT22;24727;51.974;20.868;2022-10-26T20:49:02;7.30;95.40
38938;DHT22;24727;51.974;20.868;2022-10-26T20:52:14;7.40;95.90
38938;DHT22;24727;51.974;20.868;2022-10-26T20:54:35;7.30;95.70
38938;DHT22;24727;51.974;20.868;2022-10-26T20:57:14;7.20;96.30
38938;DHT22;24727;51.974;20.868;2022-10-26T20:59:51;7.20;95.40
38938;DHT22;24727;51.974;20.868;2022-10-26T21:02:21;7.20;96.20
38938;DHT22;24727;51.974;20.868;2022-10-26T21:04:50;7.30;96.90
38938;DHT22;24727;51.974;20.868;2022-10-26T21:07:18;7.30;96.80
38938;DHT22;24727;51.974;20.868;2022-10-26T21:09:43;7.30;96.50
38938;DHT22;24727;51.974;20.868;2022-10-26T21:12:10;7.30;95.40
38938;DHT22;24727;51.974;20.868;2022-10-26T21:14:35;7.30;96.30
38938;DHT22;24727;51.974;20.868;2022-10-26T21:17:07;7.20;95.70
38938;DHT22;24727;51.974;20.868;2022-10-26T21:19:33;7.20;95.70
38938;DHT22;24727;51.974;20.868;2022-10-26T21:21:59;7.30;95.90
38938;DHT22;24727;51.974;20.868;2022-10-26T21:24:31;7.20;95.60
38938;DHT22;24727;51.974;20.868;2022-10-26T21:26:57;7.30;95.40
38938;DHT22;24727;51.974;20.868;2022-10-26T21:29:25;7.30;94.60
38938;DHT22;24727;51.974;20.868;2022-10-26T21:31:51;7.30;94.20
38938;DHT22;24727;51.974;20.868;2022-10-26T21:34:17;7.20;94.00
38938;DHT22;24727;51.974;20.868;2022-10-26T21:36:43;7.20;93.80
38938;DHT22;24727;51.974;20.868;2022-10-26T21:39:09;7.20;93.60
38938;DHT22;24727;51.974;20.868;2022-10-26T21:41:36;7.30;93.80
38938;DHT22;24727;51.974;20.868;2022-10-26T21:44:04;7.20;93.60
38938;DHT22;24727;51.974;20.868;2022-10-26T21:46:30;7.20;93.30
38938;DHT22;24727;51.974;20.868;2022-10-26T21:48:56;7.20;92.70
38938;DHT22;24727;51.974;20.868;2022-10-26T21:51:22;7.10;92.10
38938;DHT22;24727;51.974;20.868;2022-10-26T21:53:48;7.10;91.70
38938;DHT22;24727;51.974;20.868;2022-10-26T21:56:22;6.90;90.70
38938;DHT22;24727;51.974;20.868;2022-10-26T21:58:49;6.80;90.50
38938;DHT22;24727;51.974;20.868;2022-10-26T22:01:21;6.80;91.80
38938;DHT22;24727;51.974;20.868;2022-10-26T22:03:47;6.90;92.70
38938;DHT22;24727;51.974;20.868;2022-10-26T22:06:17;6.80;92.50
38938;DHT22;24727;51.974;20.868;2022-10-26T22:08:43;6.80;92.90
38938;DHT22;24727;51.974;20.868;2022-10-26T22:13:38;6.70;92.80
38938;DHT22;24727;51.974;20.868;2022-10-26T22:16:12;6.60;91.60
38938;DHT22;24727;51.974;20.868;2022-10-26T22:18:41;6.40;92.00
38938;DHT22;24727;51.974;20.868;2022-10-26T22:21:08;6.50;93.20
38938;DHT22;24727;51.974;20.868;2022-10-26T22:23:35;6.50;93.00
38938;DHT22;24727;51.974;20.868;2022-10-26T22:26:23;6.40;92.70
38938;DHT22;24727;51.974;20.868;2022-10-26T22:28:51;6.50;92.90
38938;DHT22;24727;51.974;20.868;2022-10-26T22:31:20;6.40;92.40
38938;DHT22;24727;51.974;20.868;2022-10-26T22:33:54;6.40;92.20
38938;DHT22;24727;51.974;20.868;2022-10-26T22:36:20;6.40;92.30
38938;DHT22;24727;51.974;20.868;2022-10-26T22:38:46;6.30;92.20
38938;DHT22;24727;51.974;20.868;2022-10-26T22:41:14;6.20;92.10
38938;DHT22;24727;51.974;20.868;2022-10-26T22:43:42;6.20;92.00
38938;DHT22;24727;51.974;20.868;2022-10-26T22:46:11;6.20;92.10
38938;DHT22;24727;51.974;20.868;2022-10-26T22:48:39;6.10;92.20
38938;DHT22;24727;51.974;20.868;2022-10-26T22:51:16;6.10;93.30
38938;DHT22;24727;51.974;20.868;2022-10-26T22:53:43;6.10;93.80
38938;DHT22;24727;51.974;20.868;2022-10-26T22:56:11;6.10;93.80
38938;DHT22;24727;51.974;20.868;2022-10-26T22:58:39;6.20;93.80
38938;DHT22;24727;51.974;20.868;2022-10-26T23:01:17;6.20;94.10
38938;DHT22;24727;51.974;20.868;2022-10-26T23:03:43;6.30;94.40
38938;DHT22;24727;51.974;20.868;2022-10-26T23:06:18;6.40;94.50
38938;DHT22;24727;51.974;20.868;2022-10-26T23:08:45;6.40;94.80
38938;DHT22;24727;51.974;20.868;2022-10-26T23:11:13;6.40;93.60
38938;DHT22;24727;51.974;20.868;2022-10-26T23:13:40;6.40;94.50
38938;DHT22;24727;51.974;20.868;2022-10-26T23:16:11;6.40;94.90
38938;DHT22;24727;51.974;20.868;2022-10-26T23:18:37;6.40;95.40
38938;DHT22;24727;51.974;20.868;2022-10-26T23:21:04;6.40;95.50
38938;DHT22;24727;51.974;20.868;2022-10-26T23:23:32;6.40;94.70
38938;DHT22;24727;51.974;20.868;2022-10-26T23:26:01;6.40;94.60
38938;DHT22;24727;51.974;20.868;2022-10-26T23:28:29;6.40;94.80
38938;DHT22;24727;51.974;20.868;2022-10-26T23:30:55;6.40;94.90
38938;DHT22;24727;51.974;20.868;2022-10-26T23:33:21;6.40;94.10
38938;DHT22;24727;51.974;20.868;2022-10-26T23:35:52;6.30;94.10
38938;DHT22;24727;51.974;20.868;2022-10-26T23:38:19;6.40;94.20
38938;DHT22;24727;51.974;20.868;2022-10-26T23:40:53;6.40;94.30
38938;DHT22;24727;51.974;20.868;2022-10-26T23:43:20;6.40;94.10
38938;DHT22;24727;51.974;20.868;2022-10-26T23:45:47;6.40;94.30
38938;DHT22;24727;51.974;20.868;2022-10-26T23:48:13;6.40;93.80
38938;DHT22;24727;51.974;20.868;2022-10-26T23:50:44;6.30;93.70
38938;DHT22;24727;51.974;20.868;2022-10-26T23:53:11;6.40;93.90
38938;DHT22;24727;51.974;20.868;2022-10-26T23:55:37;6.40;93.90
38938;DHT22;24727;51.974;20.868;2022-10-26T23:58:04;6.50;94.00
